sensor_id;sensor_type;location;lat;lon;timestamp;temperature;humidity
4406;DHT22;2216;53.806;11.598;2023-11-19T00:02:19;5.00;89.60
4406;DHT22;2216;53.806;11.598;2023-11-19T00:04:44;4.90;89.70
4406;DHT22;2216;53.806;11.598;2023-11-19T00:07:10;5.00;89.60
4406;DHT22;2216;53.806;11.598;2023-11-19T00:09:38;5.00;89.60
4406;DHT22;2216;53.806;11.598;2023-11-19T00:12:05;5.00;89.90
4406;DHT22;2216;53.806;11.598;2023-11-19T00:14:32;5.00;89.70
4406;DHT22;2216;53.806;11.598;2023-11-19T00:16:58;5.00;89.80
4406;DHT22;2216;53.806;11.598;2023-11-19T00:19:24;5.10;89.70
4406;DHT22;2216;53.806;11.598;2023-11-19T00:21:51;5.10;89.90
4406;DHT22;2216;53.806;11.598;2023-11-19T00:24:17;5.10;89.80
4406;DHT22;2216;53.806;11.598;2023-11-19T00:26:43;5.10;90.00
4406;DHT22;2216;53.806;11.598;2023-11-19T00:29:09;5.10;90.00
4406;DHT22;2216;53.806;11.598;2023-11-19T00:31:35;5.10;90.00
4406;DHT22;2216;53.806;11.598;2023-11-19T00:34:02;5.10;90.00
4406;DHT22;2216;53.806;11.598;2023-11-19T00:36:28;5.10;90.00
4406;DHT22;2216;53.806;11.598;2023-11-19T00:38:54;5.10;90.00
4406;DHT22;2216;53.806;11.598;2023-11-19T00:41:20;5.10;90.00
4406;DHT22;2216;53.806;11.598;2023-11-19T00:43:46;5.20;90.10
4406;DHT22;2216;53.806;11.598;2023-11-19T00:46:12;5.20;90.00
4406;DHT22;2216;53.806;11.598;2023-11-19T00:48:39;5.20;89.90
4406;DHT22;2216;53.806;11.598;2023-11-19T00:51:05;5.20;90.00
4406;DHT22;2216;53.806;11.598;2023-11-19T00:53:31;5.20;90.00
4406;DHT22;2216;53.806;11.598;2023-11-19T00:55:59;5.20;90.00
4406;DHT22;2216;53.806;11.598;2023-11-19T00:58:25;5.20;90.10
4406;DHT22;2216;53.806;11.598;2023-11-19T01:00:51;5.20;90.00
4406;DHT22;2216;53.806;11.598;2023-11-19T01:03:17;5.20;90.00
4406;DHT22;2216;53.806;11.598;2023-11-19T01:05:42;5.20;90.10
4406;DHT22;2216;53.806;11.598;2023-11-19T01:08:09;5.20;90.00
4406;DHT22;2216;53.806;11.598;2023-11-19T01:10:37;5.20;90.00
4406;DHT22;2216;53.806;11.598;2023-11-19T01:13:02;5.30;89.90
4406;DHT22;2216;53.806;11.598;2023-11-19T01:15:31;5.20;90.00
4406;DHT22;2216;53.806;11.598;2023-11-19T01:17:57;5.20;90.30
4406;DHT22;2216;53.806;11.598;2023-11-19T01:20:23;5.20;90.00
4406;DHT22;2216;53.806;11.598;2023-11-19T01:22:49;5.20;90.00
4406;DHT22;2216;53.806;11.598;2023-11-19T01:25:15;5.30;90.00
4406;DHT22;2216;53.806;11.598;2023-11-19T01:27:41;5.20;89.90
4406;DHT22;2216;53.806;11.598;2023-11-19T01:30:07;5.20;90.00
4406;DHT22;2216;53.806;11.598;2023-11-19T01:32:35;5.20;90.00
4406;DHT22;2216;53.806;11.598;2023-11-19T01:35:02;5.20;90.00
4406;DHT22;2216;53.806;11.598;2023-11-19T01:37:29;5.20;90.00
4406;DHT22;2216;53.806;11.598;2023-11-19T01:39:55;5.30;90.00
4406;DHT22;2216;53.806;11.598;2023-11-19T01:42:20;5.20;90.00
4406;DHT22;2216;53.806;11.598;2023-11-19T01:44:59;5.20;90.00
4406;DHT22;2216;53.806;11.598;2023-11-19T01:47:27;5.30;90.00
4406;DHT22;2216;53.806;11.598;2023-11-19T01:49:54;5.20;90.00
4406;DHT22;2216;53.806;11.598;2023-11-19T01:52:21;5.30;90.00
4406;DHT22;2216;53.806;11.598;2023-11-19T01:54:47;5.20;90.00
4406;DHT22;2216;53.806;11.598;2023-11-19T01:57:14;5.20;90.00
4406;DHT22;2216;53.806;11.598;2023-11-19T01:59:40;5.30;90.00
4406;DHT22;2216;53.806;11.598;2023-11-19T02:02:07;5.20;90.00
4406;DHT22;2216;53.806;11.598;2023-11-19T02:04:33;5.20;90.00
4406;DHT22;2216;53.806;11.598;2023-11-19T02:07:00;5.20;90.10
4406;DHT22;2216;53.806;11.598;2023-11-19T02:09:26;5.40;90.20
4406;DHT22;2216;53.806;11.598;2023-11-19T02:11:52;5.20;90.20
4406;DHT22;2216;53.806;11.598;2023-11-19T02:14:23;5.20;90.10
4406;DHT22;2216;53.806;11.598;2023-11-19T02:16:51;5.30;90.10
4406;DHT22;2216;53.806;11.598;2023-11-19T02:19:19;5.20;90.10
4406;DHT22;2216;53.806;11.598;2023-11-19T02:21:45;5.30;90.10
4406;DHT22;2216;53.806;11.598;2023-11-19T02:24:12;5.30;90.10
4406;DHT22;2216;53.806;11.598;2023-11-19T02:26:45;5.30;90.10
4406;DHT22;2216;53.806;11.598;2023-11-19T02:29:14;5.30;90.10
4406;DHT22;2216;53.806;11.598;2023-11-19T02:31:39;5.30;90.10
4406;DHT22;2216;53.806;11.598;2023-11-19T02:34:05;5.30;90.20
4406;DHT22;2216;53.806;11.598;2023-11-19T02:36:31;5.30;90.20
4406;DHT22;2216;53.806;11.598;2023-11-19T02:38:58;5.30;90.30
4406;DHT22;2216;53.806;11.598;2023-11-19T02:41:23;5.30;90.20
4406;DHT22;2216;53.806;11.598;2023-11-19T02:43:49;5.30;90.10
4406;DHT22;2216;53.806;11.598;2023-11-19T02:46:15;5.30;90.20
4406;DHT22;2216;53.806;11.598;2023-11-19T02:48:43;5.20;90.20
4406;DHT22;2216;53.806;11.598;2023-11-19T02:51:09;5.30;90.30
4406;DHT22;2216;53.806;11.598;2023-11-19T02:53:36;5.30;90.30
4406;DHT22;2216;53.806;11.598;2023-11-19T02:56:03;5.30;90.30
4406;DHT22;2216;53.806;11.598;2023-11-19T02:58:42;5.30;90.40
4406;DHT22;2216;53.806;11.598;2023-11-19T03:01:10;5.30;90.30
4406;DHT22;2216;53.806;11.598;2023-11-19T03:03:44;5.30;90.30
4406;DHT22;2216;53.806;11.598;2023-11-19T03:06:14;5.30;90.30
4406;DHT22;2216;53.806;11.598;2023-11-19T03:08:40;5.40;90.30
4406;DHT22;2216;53.806;11.598;2023-11-19T03:11:05;5.30;90.40
4406;DHT22;2216;53.806;11.598;2023-11-19T03:13:31;5.30;90.30
4406;DHT22;2216;53.806;11.598;2023-11-19T03:15:57;5.30;90.30
4406;DHT22;2216;53.806;11.598;2023-11-19T03:18:22;5.40;90.30
4406;DHT22;2216;53.806;11.598;2023-11-19T03:20:48;5.50;90.50
4406;DHT22;2216;53.806;11.598;2023-11-19T03:23:15;5.40;90.30
4406;DHT22;2216;53.806;11.598;2023-11-19T03:25:40;5.40;90.30
4406;DHT22;2216;53.806;11.598;2023-11-19T03:28:06;5.40;90.20
4406;DHT22;2216;53.806;11.598;2023-11-19T03:30:32;5.50;90.40
4406;DHT22;2216;53.806;11.598;2023-11-19T03:32:58;5.40;90.30
4406;DHT22;2216;53.806;11.598;2023-11-19T03:35:25;5.40;90.30
4406;DHT22;2216;53.806;11.598;2023-11-19T03:37:51;5.40;90.40
4406;DHT22;2216;53.806;11.598;2023-11-19T03:40:17;5.40;90.30
4406;DHT22;2216;53.806;11.598;2023-11-19T03:42:47;5.40;90.30
4406;DHT22;2216;53.806;11.598;2023-11-19T03:45:13;5.40;90.20
4406;DHT22;2216;53.806;11.598;2023-11-19T03:47:41;5.40;90.20
4406;DHT22;2216;53.806;11.598;2023-11-19T03:50:07;5.40;90.20
4406;DHT22;2216;53.806;11.598;2023-11-19T03:52:36;5.40;90.20
4406;DHT22;2216;53.806;11.598;2023-11-19T03:55:02;5.40;90.20
4406;DHT22;2216;53.806;11.598;2023-11-19T03:57:30;5.40;90.20
4406;DHT22;2216;53.806;11.598;2023-11-19T03:59:56;5.40;90.20
4406;DHT22;2216;53.806;11.598;2023-11-19T04:02:23;5.40;90.10
4406;DHT22;2216;53.806;11.598;2023-11-19T04:04:53;5.50;90.20
4406;DHT22;2216;53.806;11.598;2023-11-19T04:07:20;5.50;90.20
4406;DHT22;2216;53.806;11.598;2023-11-19T04:09:45;5.50;90.20
4406;DHT22;2216;53.806;11.598;2023-11-19T04:12:12;5.50;90.20
4406;DHT22;2216;53.806;11.598;2023-11-19T04:14:37;5.50;90.20
4406;DHT22;2216;53.806;11.598;2023-11-19T04:17:03;5.50;90.20
4406;DHT22;2216;53.806;11.598;2023-11-19T04:19:29;5.50;90.20
4406;DHT22;2216;53.806;11.598;2023-11-19T04:21:54;5.40;90.30
4406;DHT22;2216;53.806;11.598;2023-11-19T04:24:20;5.50;90.30
4406;DHT22;2216;53.806;11.598;2023-11-19T04:26:46;5.50;90.20
4406;DHT22;2216;53.806;11.598;2023-11-19T04:29:13;5.50;90.30
4406;DHT22;2216;53.806;11.598;2023-11-19T04:31:40;5.50;90.30
4406;DHT22;2216;53.806;11.598;2023-11-19T04:34:07;5.50;90.30
4406;DHT22;2216;53.806;11.598;2023-11-19T04:36:33;5.50;90.50
4406;DHT22;2216;53.806;11.598;2023-11-19T04:39:00;5.50;90.40
4406;DHT22;2216;53.806;11.598;2023-11-19T04:41:26;5.50;90.40
4406;DHT22;2216;53.806;11.598;2023-11-19T04:43:55;5.60;90.30
4406;DHT22;2216;53.806;11.598;2023-11-19T04:46:21;5.50;90.30
4406;DHT22;2216;53.806;11.598;2023-11-19T04:48:49;5.60;90.30
4406;DHT22;2216;53.806;11.598;2023-11-19T04:51:15;5.60;90.30
4406;DHT22;2216;53.806;11.598;2023-11-19T04:53:40;5.60;90.60
4406;DHT22;2216;53.806;11.598;2023-11-19T04:56:10;5.60;90.30
4406;DHT22;2216;53.806;11.598;2023-11-19T04:58:37;5.60;90.40
4406;DHT22;2216;53.806;11.598;2023-11-19T05:01:03;5.60;90.40
4406;DHT22;2216;53.806;11.598;2023-11-19T05:03:30;5.60;90.30
4406;DHT22;2216;53.806;11.598;2023-11-19T05:05:57;5.60;90.30
4406;DHT22;2216;53.806;11.598;2023-11-19T05:08:25;5.60;90.30
4406;DHT22;2216;53.806;11.598;2023-11-19T05:10:51;5.60;90.40
4406;DHT22;2216;53.806;11.598;2023-11-19T05:13:17;5.70;90.40
4406;DHT22;2216;53.806;11.598;2023-11-19T05:15:42;5.60;90.40
4406;DHT22;2216;53.806;11.598;2023-11-19T05:18:08;5.60;90.40
4406;DHT22;2216;53.806;11.598;2023-11-19T05:20:34;5.60;90.30
4406;DHT22;2216;53.806;11.598;2023-11-19T05:23:00;5.70;90.30
4406;DHT22;2216;53.806;11.598;2023-11-19T05:25:26;5.70;90.30
4406;DHT22;2216;53.806;11.598;2023-11-19T05:27:52;5.70;90.30
4406;DHT22;2216;53.806;11.598;2023-11-19T05:30:18;5.70;90.30
4406;DHT22;2216;53.806;11.598;2023-11-19T05:32:44;5.70;90.30
4406;DHT22;2216;53.806;11.598;2023-11-19T05:35:11;5.70;90.30
4406;DHT22;2216;53.806;11.598;2023-11-19T05:37:37;5.80;90.30
4406;DHT22;2216;53.806;11.598;2023-11-19T05:40:03;5.70;90.30
4406;DHT22;2216;53.806;11.598;2023-11-19T05:42:32;5.70;90.30
4406;DHT22;2216;53.806;11.598;2023-11-19T05:44:57;5.80;90.30
4406;DHT22;2216;53.806;11.598;2023-11-19T05:47:23;5.80;90.30
4406;DHT22;2216;53.806;11.598;2023-11-19T05:49:49;5.80;90.30
4406;DHT22;2216;53.806;11.598;2023-11-19T05:52:14;5.80;90.40
4406;DHT22;2216;53.806;11.598;2023-11-19T05:54:40;5.80;90.30
4406;DHT22;2216;53.806;11.598;2023-11-19T05:57:07;5.80;90.40
4406;DHT22;2216;53.806;11.598;2023-11-19T05:59:36;5.70;90.30
4406;DHT22;2216;53.806;11.598;2023-11-19T06:02:05;5.80;90.40
4406;DHT22;2216;53.806;11.598;2023-11-19T06:04:30;5.80;90.40
4406;DHT22;2216;53.806;11.598;2023-11-19T06:06:56;5.80;90.40
4406;DHT22;2216;53.806;11.598;2023-11-19T06:09:22;5.80;90.40
4406;DHT22;2216;53.806;11.598;2023-11-19T06:11:51;5.90;90.40
4406;DHT22;2216;53.806;11.598;2023-11-19T06:14:18;5.80;90.50
4406;DHT22;2216;53.806;11.598;2023-11-19T06:16:44;5.90;90.40
4406;DHT22;2216;53.806;11.598;2023-11-19T06:19:10;5.90;90.40
4406;DHT22;2216;53.806;11.598;2023-11-19T06:21:37;5.90;90.50
4406;DHT22;2216;53.806;11.598;2023-11-19T06:24:02;5.90;90.50
4406;DHT22;2216;53.806;11.598;2023-11-19T06:26:28;5.90;90.50
4406;DHT22;2216;53.806;11.598;2023-11-19T06:28:54;5.90;90.40
4406;DHT22;2216;53.806;11.598;2023-11-19T06:31:20;5.90;90.50
4406;DHT22;2216;53.806;11.598;2023-11-19T06:33:46;5.90;90.50
4406;DHT22;2216;53.806;11.598;2023-11-19T06:36:14;5.90;90.50
4406;DHT22;2216;53.806;11.598;2023-11-19T06:38:42;5.90;90.50
4406;DHT22;2216;53.806;11.598;2023-11-19T06:41:09;6.00;90.50
4406;DHT22;2216;53.806;11.598;2023-11-19T06:43:35;6.00;90.50
4406;DHT22;2216;53.806;11.598;2023-11-19T06:46:02;6.00;90.50
4406;DHT22;2216;53.806;11.598;2023-11-19T06:48:27;6.00;90.50
4406;DHT22;2216;53.806;11.598;2023-11-19T06:50:53;6.00;90.50
4406;DHT22;2216;53.806;11.598;2023-11-19T06:53:19;6.00;90.40
4406;DHT22;2216;53.806;11.598;2023-11-19T06:55:44;6.00;90.40
4406;DHT22;2216;53.806;11.598;2023-11-19T06:58:11;6.10;90.60
4406;DHT22;2216;53.806;11.598;2023-11-19T07:00:38;6.10;90.60
4406;DHT22;2216;53.806;11.598;2023-11-19T07:03:03;6.10;90.70
4406;DHT22;2216;53.806;11.598;2023-11-19T07:05:31;6.10;90.60
4406;DHT22;2216;53.806;11.598;2023-11-19T07:07:56;6.10;90.50
4406;DHT22;2216;53.806;11.598;2023-11-19T07:10:22;6.10;90.50
4406;DHT22;2216;53.806;11.598;2023-11-19T07:12:48;6.10;90.50
4406;DHT22;2216;53.806;11.598;2023-11-19T07:15:15;6.20;90.50
4406;DHT22;2216;53.806;11.598;2023-11-19T07:17:43;6.20;90.40
4406;DHT22;2216;53.806;11.598;2023-11-19T07:20:10;6.20;90.40
4406;DHT22;2216;53.806;11.598;2023-11-19T07:22:38;6.20;90.40
4406;DHT22;2216;53.806;11.598;2023-11-19T07:25:04;6.30;90.70
4406;DHT22;2216;53.806;11.598;2023-11-19T07:27:30;6.30;90.50
4406;DHT22;2216;53.806;11.598;2023-11-19T07:29:56;6.30;90.50
4406;DHT22;2216;53.806;11.598;2023-11-19T07:32:21;6.30;90.40
4406;DHT22;2216;53.806;11.598;2023-11-19T07:34:47;6.30;90.40
4406;DHT22;2216;53.806;11.598;2023-11-19T07:37:13;6.40;90.50
4406;DHT22;2216;53.806;11.598;2023-11-19T07:39:38;6.40;90.40
4406;DHT22;2216;53.806;11.598;2023-11-19T07:42:06;6.40;90.50
4406;DHT22;2216;53.806;11.598;2023-11-19T07:44:32;6.50;90.50
4406;DHT22;2216;53.806;11.598;2023-11-19T07:46:57;6.50;90.50
4406;DHT22;2216;53.806;11.598;2023-11-19T07:49:23;6.60;90.60
4406;DHT22;2216;53.806;11.598;2023-11-19T07:51:49;6.60;90.60
4406;DHT22;2216;53.806;11.598;2023-11-19T07:54:15;6.70;90.60
4406;DHT22;2216;53.806;11.598;2023-11-19T07:56:40;6.70;90.60
4406;DHT22;2216;53.806;11.598;2023-11-19T07:59:06;6.70;90.60
4406;DHT22;2216;53.806;11.598;2023-11-19T08:01:32;6.80;90.60
4406;DHT22;2216;53.806;11.598;2023-11-19T08:03:58;6.80;90.60
4406;DHT22;2216;53.806;11.598;2023-11-19T08:06:24;6.90;90.60
4406;DHT22;2216;53.806;11.598;2023-11-19T08:08:50;6.90;90.60
4406;DHT22;2216;53.806;11.598;2023-11-19T08:11:17;6.90;90.60
4406;DHT22;2216;53.806;11.598;2023-11-19T08:13:42;7.00;90.60
4406;DHT22;2216;53.806;11.598;2023-11-19T08:16:08;7.00;90.60
4406;DHT22;2216;53.806;11.598;2023-11-19T08:18:35;7.00;90.60
4406;DHT22;2216;53.806;11.598;2023-11-19T08:21:00;7.10;90.60
4406;DHT22;2216;53.806;11.598;2023-11-19T08:23:26;7.10;90.60
4406;DHT22;2216;53.806;11.598;2023-11-19T08:25:53;7.20;90.60
4406;DHT22;2216;53.806;11.598;2023-11-19T08:28:19;7.20;90.60
4406;DHT22;2216;53.806;11.598;2023-11-19T08:30:45;7.30;90.60
4406;DHT22;2216;53.806;11.598;2023-11-19T08:33:11;7.30;90.50
4406;DHT22;2216;53.806;11.598;2023-11-19T08:35:36;7.30;90.50
4406;DHT22;2216;53.806;11.598;2023-11-19T08:38:02;7.40;90.50
4406;DHT22;2216;53.806;11.598;2023-11-19T08:40:28;7.40;90.50
4406;DHT22;2216;53.806;11.598;2023-11-19T08:42:55;7.50;90.60
4406;DHT22;2216;53.806;11.598;2023-11-19T08:45:22;7.50;90.50
4406;DHT22;2216;53.806;11.598;2023-11-19T08:47:47;7.50;90.50
4406;DHT22;2216;53.806;11.598;2023-11-19T08:50:13;7.60;90.60
4406;DHT22;2216;53.806;11.598;2023-11-19T08:52:39;7.60;90.60
4406;DHT22;2216;53.806;11.598;2023-11-19T08:55:05;7.70;90.60
4406;DHT22;2216;53.806;11.598;2023-11-19T08:57:31;7.70;90.60
4406;DHT22;2216;53.806;11.598;2023-11-19T08:59:58;7.80;90.60
4406;DHT22;2216;53.806;11.598;2023-11-19T09:02:24;7.80;90.60
4406;DHT22;2216;53.806;11.598;2023-11-19T09:04:50;7.80;90.60
4406;DHT22;2216;53.806;11.598;2023-11-19T09:07:16;7.90;90.60
4406;DHT22;2216;53.806;11.598;2023-11-19T09:09:41;8.00;90.70
4406;DHT22;2216;53.806;11.598;2023-11-19T09:12:07;8.00;90.60
4406;DHT22;2216;53.806;11.598;2023-11-19T09:14:33;8.10;90.70
4406;DHT22;2216;53.806;11.598;2023-11-19T09:16:58;8.10;90.70
4406;DHT22;2216;53.806;11.598;2023-11-19T09:19:25;8.20;90.70
4406;DHT22;2216;53.806;11.598;2023-11-19T09:21:54;8.20;90.70
4406;DHT22;2216;53.806;11.598;2023-11-19T09:24:19;8.30;90.70
4406;DHT22;2216;53.806;11.598;2023-11-19T09:26:45;8.40;90.70
4406;DHT22;2216;53.806;11.598;2023-11-19T09:29:11;8.50;90.80
4406;DHT22;2216;53.806;11.598;2023-11-19T09:31:40;8.50;90.70
4406;DHT22;2216;53.806;11.598;2023-11-19T09:34:05;8.50;90.70
4406;DHT22;2216;53.806;11.598;2023-11-19T09:36:31;8.60;90.80
4406;DHT22;2216;53.806;11.598;2023-11-19T09:38:57;8.70;90.70
4406;DHT22;2216;53.806;11.598;2023-11-19T09:41:23;8.70;90.70
4406;DHT22;2216;53.806;11.598;2023-11-19T09:43:49;8.80;90.80
4406;DHT22;2216;53.806;11.598;2023-11-19T10:06:33;9.00;90.00
4406;DHT22;2216;53.806;11.598;2023-11-19T10:08:59;9.70;91.70
4406;DHT22;2216;53.806;11.598;2023-11-19T10:11:25;9.90;91.60
4406;DHT22;2216;53.806;11.598;2023-11-19T10:13:53;10.10;91.50
4406;DHT22;2216;53.806;11.598;2023-11-19T10:16:19;10.30;91.40
4406;DHT22;2216;53.806;11.598;2023-11-19T10:18:49;10.30;91.30
4406;DHT22;2216;53.806;11.598;2023-11-19T10:21:18;10.40;91.30
4406;DHT22;2216;53.806;11.598;2023-11-19T10:23:57;10.50;91.20
4406;DHT22;2216;53.806;11.598;2023-11-19T10:26:25;10.60;91.20
4406;DHT22;2216;53.806;11.598;2023-11-19T10:28:51;10.70;91.20
4406;DHT22;2216;53.806;11.598;2023-11-19T10:31:18;10.80;91.20
4406;DHT22;2216;53.806;11.598;2023-11-19T10:33:45;10.80;91.20
4406;DHT22;2216;53.806;11.598;2023-11-19T10:36:12;10.90;91.20
4406;DHT22;2216;53.806;11.598;2023-11-19T10:38:39;11.00;91.20
4406;DHT22;2216;53.806;11.598;2023-11-19T10:41:05;11.10;91.20
4406;DHT22;2216;53.806;11.598;2023-11-19T10:43:31;11.10;91.10
4406;DHT22;2216;53.806;11.598;2023-11-19T10:46:10;11.20;91.10
4406;DHT22;2216;53.806;11.598;2023-11-19T10:48:37;11.20;91.10
4406;DHT22;2216;53.806;11.598;2023-11-19T10:51:05;11.30;91.00
4406;DHT22;2216;53.806;11.598;2023-11-19T10:53:38;11.30;91.00
4406;DHT22;2216;53.806;11.598;2023-11-19T10:56:06;11.40;91.00
4406;DHT22;2216;53.806;11.598;2023-11-19T10:58:36;11.40;90.90
4406;DHT22;2216;53.806;11.598;2023-11-19T11:01:11;11.40;90.80
4406;DHT22;2216;53.806;11.598;2023-11-19T11:03:40;11.40;90.80
4406;DHT22;2216;53.806;11.598;2023-11-19T11:06:06;11.50;90.80
4406;DHT22;2216;53.806;11.598;2023-11-19T11:08:34;11.50;90.80
4406;DHT22;2216;53.806;11.598;2023-11-19T11:11:02;11.50;90.70
4406;DHT22;2216;53.806;11.598;2023-11-19T11:13:30;11.50;90.70
4406;DHT22;2216;53.806;11.598;2023-11-19T11:15:57;11.50;90.70
4406;DHT22;2216;53.806;11.598;2023-11-19T11:18:24;11.50;90.70
4406;DHT22;2216;53.806;11.598;2023-11-19T11:29:41;11.50;90.70
4406;DHT22;2216;53.806;11.598;2023-11-19T11:35:38;11.50;90.70
4406;DHT22;2216;53.806;11.598;2023-11-19T11:38:14;11.60;90.80
4406;DHT22;2216;53.806;11.598;2023-11-19T11:40:41;11.60;90.80
4406;DHT22;2216;53.806;11.598;2023-11-19T11:48:58;11.70;90.90
4406;DHT22;2216;53.806;11.598;2023-11-19T11:59:45;11.80;91.00
4406;DHT22;2216;53.806;11.598;2023-11-19T12:02:13;11.80;91.00
4406;DHT22;2216;53.806;11.598;2023-11-19T12:04:40;11.90;91.10
4406;DHT22;2216;53.806;11.598;2023-11-19T12:07:12;11.90;91.10
4406;DHT22;2216;53.806;11.598;2023-11-19T12:09:41;12.00;91.20
4406;DHT22;2216;53.806;11.598;2023-11-19T12:12:19;12.00;91.20
4406;DHT22;2216;53.806;11.598;2023-11-19T12:15:02;12.10;91.20
4406;DHT22;2216;53.806;11.598;2023-11-19T12:20:00;12.10;91.00
4406;DHT22;2216;53.806;11.598;2023-11-19T12:22:27;12.20;91.00
4406;DHT22;2216;53.806;11.598;2023-11-19T12:24:56;12.20;91.00
4406;DHT22;2216;53.806;11.598;2023-11-19T12:27:22;12.20;91.00
4406;DHT22;2216;53.806;11.598;2023-11-19T12:29:48;12.30;91.00
4406;DHT22;2216;53.806;11.598;2023-11-19T12:32:14;12.30;90.90
4406;DHT22;2216;53.806;11.598;2023-11-19T12:34:40;12.30;90.90
4406;DHT22;2216;53.806;11.598;2023-11-19T12:37:06;12.50;91.20
4406;DHT22;2216;53.806;11.598;2023-11-19T12:39:32;12.30;90.80
4406;DHT22;2216;53.806;11.598;2023-11-19T12:41:58;12.30;90.80
4406;DHT22;2216;53.806;11.598;2023-11-19T12:44:26;12.30;90.80
4406;DHT22;2216;53.806;11.598;2023-11-19T12:47:05;12.30;90.70
4406;DHT22;2216;53.806;11.598;2023-11-19T12:49:36;12.30;90.70
4406;DHT22;2216;53.806;11.598;2023-11-19T12:52:02;12.30;90.70
4406;DHT22;2216;53.806;11.598;2023-11-19T12:54:37;12.20;90.70
4406;DHT22;2216;53.806;11.598;2023-11-19T12:57:03;12.30;90.70
4406;DHT22;2216;53.806;11.598;2023-11-19T12:59:30;12.30;90.70
4406;DHT22;2216;53.806;11.598;2023-11-19T13:02:00;12.20;90.60
4406;DHT22;2216;53.806;11.598;2023-11-19T13:04:29;12.20;90.60
4406;DHT22;2216;53.806;11.598;2023-11-19T13:06:59;12.20;90.60
4406;DHT22;2216;53.806;11.598;2023-11-19T13:09:26;12.20;90.60
4406;DHT22;2216;53.806;11.598;2023-11-19T13:11:55;12.20;90.60
4406;DHT22;2216;53.806;11.598;2023-11-19T13:14:22;12.20;90.60
4406;DHT22;2216;53.806;11.598;2023-11-19T13:16:48;12.20;90.60
4406;DHT22;2216;53.806;11.598;2023-11-19T13:19:15;12.20;90.60
4406;DHT22;2216;53.806;11.598;2023-11-19T13:21:42;12.10;90.50
4406;DHT22;2216;53.806;11.598;2023-11-19T13:24:08;12.10;90.50
4406;DHT22;2216;53.806;11.598;2023-11-19T13:26:34;12.10;90.50
4406;DHT22;2216;53.806;11.598;2023-11-19T13:29:03;12.10;90.50
4406;DHT22;2216;53.806;11.598;2023-11-19T13:31:29;12.10;90.50
4406;DHT22;2216;53.806;11.598;2023-11-19T13:33:55;12.00;90.50
4406;DHT22;2216;53.806;11.598;2023-11-19T13:36:22;12.00;90.50
4406;DHT22;2216;53.806;11.598;2023-11-19T13:38:47;12.00;90.50
4406;DHT22;2216;53.806;11.598;2023-11-19T13:41:13;12.00;90.60
4406;DHT22;2216;53.806;11.598;2023-11-19T13:43:40;12.00;90.60
4406;DHT22;2216;53.806;11.598;2023-11-19T13:46:05;12.10;90.60
4406;DHT22;2216;53.806;11.598;2023-11-19T13:48:31;12.00;90.60
4406;DHT22;2216;53.806;11.598;2023-11-19T13:50:57;12.10;90.60
4406;DHT22;2216;53.806;11.598;2023-11-19T13:53:23;12.00;90.60
4406;DHT22;2216;53.806;11.598;2023-11-19T13:55:49;12.00;90.60
4406;DHT22;2216;53.806;11.598;2023-11-19T13:58:15;12.00;90.50
4406;DHT22;2216;53.806;11.598;2023-11-19T14:00:42;12.00;90.50
4406;DHT22;2216;53.806;11.598;2023-11-19T14:03:08;12.00;90.50
4406;DHT22;2216;53.806;11.598;2023-11-19T14:05:36;11.90;90.40
4406;DHT22;2216;53.806;11.598;2023-11-19T14:08:03;11.90;90.50
4406;DHT22;2216;53.806;11.598;2023-11-19T14:10:39;11.90;90.50
4406;DHT22;2216;53.806;11.598;2023-11-19T14:13:08;11.90;90.50
4406;DHT22;2216;53.806;11.598;2023-11-19T14:15:34;11.90;90.50
4406;DHT22;2216;53.806;11.598;2023-11-19T14:18:01;11.90;90.50
4406;DHT22;2216;53.806;11.598;2023-11-19T14:20:27;11.80;90.40
4406;DHT22;2216;53.806;11.598;2023-11-19T14:22:52;11.80;90.50
4406;DHT22;2216;53.806;11.598;2023-11-19T14:25:18;11.80;90.50
4406;DHT22;2216;53.806;11.598;2023-11-19T14:27:45;11.80;90.50
4406;DHT22;2216;53.806;11.598;2023-11-19T14:30:13;11.80;90.50
4406;DHT22;2216;53.806;11.598;2023-11-19T14:32:40;11.90;90.50
4406;DHT22;2216;53.806;11.598;2023-11-19T14:35:11;11.70;90.50
4406;DHT22;2216;53.806;11.598;2023-11-19T14:37:36;11.80;90.60
4406;DHT22;2216;53.806;11.598;2023-11-19T14:40:03;11.70;90.50
4406;DHT22;2216;53.806;11.598;2023-11-19T14:42:34;11.70;90.50
4406;DHT22;2216;53.806;11.598;2023-11-19T14:44:59;11.70;90.60
4406;DHT22;2216;53.806;11.598;2023-11-19T14:47:25;11.70;90.60
4406;DHT22;2216;53.806;11.598;2023-11-19T14:49:51;11.70;90.60
4406;DHT22;2216;53.806;11.598;2023-11-19T14:52:16;11.70;90.60
4406;DHT22;2216;53.806;11.598;2023-11-19T14:54:42;11.70;90.50
4406;DHT22;2216;53.806;11.598;2023-11-19T14:57:08;11.70;90.50
4406;DHT22;2216;53.806;11.598;2023-11-19T14:59:35;11.70;90.50
4406;DHT22;2216;53.806;11.598;2023-11-19T15:02:01;11.70;90.50
4406;DHT22;2216;53.806;11.598;2023-11-19T15:04:27;11.70;90.50
4406;DHT22;2216;53.806;11.598;2023-11-19T15:06:52;11.70;90.50
4406;DHT22;2216;53.806;11.598;2023-11-19T15:09:18;11.70;90.50
4406;DHT22;2216;53.806;11.598;2023-11-19T15:11:46;11.60;90.40
4406;DHT22;2216;53.806;11.598;2023-11-19T15:14:15;11.60;90.40
4406;DHT22;2216;53.806;11.598;2023-11-19T15:16:44;11.60;90.50
4406;DHT22;2216;53.806;11.598;2023-11-19T15:19:11;11.60;90.40
4406;DHT22;2216;53.806;11.598;2023-11-19T15:21:38;11.60;90.40
4406;DHT22;2216;53.806;11.598;2023-11-19T15:24:04;11.50;90.40
4406;DHT22;2216;53.806;11.598;2023-11-19T15:26:35;11.50;90.40
4406;DHT22;2216;53.806;11.598;2023-11-19T15:29:02;11.50;90.40
4406;DHT22;2216;53.806;11.598;2023-11-19T15:31:29;11.50;90.40
4406;DHT22;2216;53.806;11.598;2023-11-19T15:33:55;11.50;90.40
4406;DHT22;2216;53.806;11.598;2023-11-19T15:36:21;11.30;90.40
4406;DHT22;2216;53.806;11.598;2023-11-19T15:38:47;11.50;90.50
4406;DHT22;2216;53.806;11.598;2023-11-19T15:41:12;11.40;90.40
4406;DHT22;2216;53.806;11.598;2023-11-19T15:45:08;11.40;90.10
4406;DHT22;2216;53.806;11.598;2023-11-19T15:47:34;11.40;90.40
4406;DHT22;2216;53.806;11.598;2023-11-19T15:50:03;11.40;90.40
4406;DHT22;2216;53.806;11.598;2023-11-19T15:52:29;11.40;90.40
4406;DHT22;2216;53.806;11.598;2023-11-19T15:54:58;11.40;90.40
4406;DHT22;2216;53.806;11.598;2023-11-19T15:57:23;11.30;90.40
4406;DHT22;2216;53.806;11.598;2023-11-19T15:59:49;11.30;90.40
4406;DHT22;2216;53.806;11.598;2023-11-19T16:02:16;11.30;90.40
4406;DHT22;2216;53.806;11.598;2023-11-19T16:04:42;11.20;90.40
4406;DHT22;2216;53.806;11.598;2023-11-19T16:07:13;11.30;90.40
4406;DHT22;2216;53.806;11.598;2023-11-19T16:09:39;11.20;90.40
4406;DHT22;2216;53.806;11.598;2023-11-19T16:12:06;11.20;90.40
4406;DHT22;2216;53.806;11.598;2023-11-19T16:14:33;11.30;90.40
4406;DHT22;2216;53.806;11.598;2023-11-19T16:16:59;11.20;90.40
4406;DHT22;2216;53.806;11.598;2023-11-19T16:19:25;11.20;90.40
4406;DHT22;2216;53.806;11.598;2023-11-19T16:21:52;11.20;90.40
4406;DHT22;2216;53.806;11.598;2023-11-19T16:24:18;11.20;90.40
4406;DHT22;2216;53.806;11.598;2023-11-19T16:26:44;11.10;90.40
4406;DHT22;2216;53.806;11.598;2023-11-19T16:29:10;11.10;90.40
4406;DHT22;2216;53.806;11.598;2023-11-19T16:31:36;11.10;90.40
4406;DHT22;2216;53.806;11.598;2023-11-19T16:34:01;11.10;90.30
4406;DHT22;2216;53.806;11.598;2023-11-19T16:36:27;11.00;90.30
4406;DHT22;2216;53.806;11.598;2023-11-19T16:38:53;11.00;90.30
4406;DHT22;2216;53.806;11.598;2023-11-19T16:41:19;11.00;90.30
4406;DHT22;2216;53.806;11.598;2023-11-19T16:43:51;11.00;90.30